Time;durP1;ratioP1;P1;durP2;ratioP2;P2;SDS_P1;SDS_P2;PMS_P1;PMS_P2;Temp;Humidity;BMP_temperature;BMP_pressure;BME280_temperature;BME280_humidity;BME280_pressure;Samples;Min_cycle;Max_cycle;Signal;HPM_P1;HPM_P2
2023/10/16 00:02:43;;;;;;;8.68;3.28;;;;;;;;;;10347457;28;20053;-68
2023/10/16 00:07:50;;;;;;;7.45;3.25;;;;;;;;;;10343208;28;20058;-70
2023/10/16 00:12:52;;;;;;;7.07;3.15;;;;;;;;;;10342619;28;20049;-70
2023/10/16 00:17:57;;;;;;;9.35;4.00;;;;;;;;;;10346407;28;20046;-67
2023/10/16 00:23:04;;;;;;;7.88;3.50;;;;;;;;;;10341109;28;20056;-68
2023/10/16 00:28:07;;;;;;;7.50;3.60;;;;;;;;;;10347705;28;20055;-69
2023/10/16 00:33:11;;;;;;;10.30;3.88;;;;;;;;;;10344007;28;20433;-67
2023/10/16 00:38:19;;;;;;;9.77;3.42;;;;;;;;;;10337249;28;20104;-69
2023/10/16 00:43:22;;;;;;;8.52;3.55;;;;;;;;;;10350428;28;20049;-68
2023/10/16 00:48:24;;;;;;;7.57;3.58;;;;;;;;;;10339492;28;20498;-69
2023/10/16 00:53:28;;;;;;;8.32;3.53;;;;;;;;;;10339743;28;20499;-69
2023/10/16 00:58:31;;;;;;;7.28;3.58;;;;;;;;;;10346171;28;20056;-69
2023/10/16 01:03:34;;;;;;;7.15;3.65;;;;;;;;;;10342473;28;20050;-69
2023/10/16 01:08:45;;;;;;;9.93;3.92;;;;;;;;;;10340286;28;20046;-71
2023/10/16 01:13:48;;;;;;;8.45;3.55;;;;;;;;;;10347776;28;20041;-70
2023/10/16 01:18:51;;;;;;;7.53;3.40;;;;;;;;;;10341789;28;20073;-68
2023/10/16 01:23:55;;;;;;;8.45;3.85;;;;;;;;;;10342283;28;20057;-69
2023/10/16 01:28:58;;;;;;;8.38;3.70;;;;;;;;;;10345593;28;20105;-69
2023/10/16 01:34:01;;;;;;;8.00;3.88;;;;;;;;;;10343166;28;20042;-69
2023/10/16 01:39:08;;;;;;;8.20;3.97;;;;;;;;;;10340567;28;20056;-68
2023/10/16 01:44:11;;;;;;;9.10;4.03;;;;;;;;;;10340644;28;20041;-70
2023/10/16 01:49:13;;;;;;;6.43;3.65;;;;;;;;;;10341824;28;20046;-68
2023/10/16 01:54:22;;;;;;;6.97;3.78;;;;;;;;;;10344138;28;20052;-68
2023/10/16 01:59:25;;;;;;;6.72;3.45;;;;;;;;;;10351041;28;20046;-69
2023/10/16 02:04:28;;;;;;;9.85;3.90;;;;;;;;;;10339887;28;20050;-69
2023/10/16 02:09:32;;;;;;;8.65;4.10;;;;;;;;;;10342623;28;20046;-68
2023/10/16 02:14:39;;;;;;;11.90;3.80;;;;;;;;;;10342565;28;20150;-69
2023/10/16 02:19:44;;;;;;;10.45;5.00;;;;;;;;;;10345775;28;20052;-68
2023/10/16 02:24:49;;;;;;;7.60;3.95;;;;;;;;;;10343858;28;20078;-71
2023/10/16 02:29:53;;;;;;;10.18;4.32;;;;;;;;;;10345385;28;20031;-68
2023/10/16 02:34:55;;;;;;;9.73;4.53;;;;;;;;;;10342508;28;20046;-69
2023/10/16 02:39:59;;;;;;;9.30;4.35;;;;;;;;;;10340807;28;20594;-68
2023/10/16 02:45:02;;;;;;;11.57;4.20;;;;;;;;;;10357916;28;20064;-68
2023/10/16 02:50:08;;;;;;;8.60;4.50;;;;;;;;;;10346962;28;20034;-68
2023/10/16 02:55:13;;;;;;;11.88;4.88;;;;;;;;;;10345818;28;20513;-69
2023/10/16 03:00:24;;;;;;;8.97;4.87;;;;;;;;;;10337690;28;20065;-68
2023/10/16 03:05:28;;;;;;;12.77;4.80;;;;;;;;;;10361199;28;20042;-70
2023/10/16 03:10:32;;;;;;;11.98;4.43;;;;;;;;;;10352253;28;20042;-70
2023/10/16 03:15:42;;;;;;;11.75;5.00;;;;;;;;;;10349965;28;20106;-69
2023/10/16 03:20:46;;;;;;;9.70;5.15;;;;;;;;;;10346013;28;20045;-68
2023/10/16 03:25:52;;;;;;;11.47;4.90;;;;;;;;;;10349545;28;20125;-69
2023/10/16 03:30:59;;;;;;;10.67;5.13;;;;;;;;;;10345469;28;20054;-69
2023/10/16 03:36:03;;;;;;;9.50;4.90;;;;;;;;;;10345217;28;20102;-74
2023/10/16 03:41:18;;;;;;;7.87;3.80;;;;;;;;;;10350393;28;20077;-69
2023/10/16 03:46:20;;;;;;;6.13;3.08;;;;;;;;;;10343835;28;20080;-71
2023/10/16 03:51:24;;;;;;;7.50;2.70;;;;;;;;;;10345518;28;20042;-69
2023/10/16 03:56:30;;;;;;;6.10;3.00;;;;;;;;;;10348609;28;20424;-68
2023/10/16 04:01:37;;;;;;;6.32;3.05;;;;;;;;;;10354444;28;20030;-69
2023/10/16 04:06:41;;;;;;;7.15;3.17;;;;;;;;;;10344201;28;20087;-68
2023/10/16 04:11:54;;;;;;;6.43;2.75;;;;;;;;;;10353036;28;20053;-68
2023/10/16 04:16:56;;;;;;;5.28;2.55;;;;;;;;;;10349211;28;20065;-68
2023/10/16 04:22:07;;;;;;;10.40;3.40;;;;;;;;;;10347901;28;20045;-68
2023/10/16 04:27:32;;;;;;;6.32;2.83;;;;;;;;;;10343958;28;20054;-70
2023/10/16 04:32:40;;;;;;;9.77;3.73;;;;;;;;;;10348023;28;20394;-69
2023/10/16 04:37:49;;;;;;;8.13;4.00;;;;;;;;;;10345856;28;20057;-68
2023/10/16 04:43:09;;;;;;;7.97;3.90;;;;;;;;;;10348939;28;20038;-68
2023/10/16 04:48:39;;;;;;;9.40;4.35;;;;;;;;;;10348279;28;20061;-69
2023/10/16 04:54:13;;;;;;;9.27;4.20;;;;;;;;;;10345042;28;20426;-68
2023/10/16 05:15:37;;;;;;;11.13;4.15;;;;;;;;;;10346310;28;20045;-70
2023/10/16 06:14:11;;;;;;;6.85;2.80;;;;;;;;;;10340803;28;20037;-69
2023/10/16 06:19:17;;;;;;;5.88;2.83;;;;;;;;;;10344010;28;20054;-69
2023/10/16 06:24:28;;;;;;;8.27;2.75;;;;;;;;;;10336406;28;20046;-69
2023/10/16 06:29:35;;;;;;;5.28;2.53;;;;;;;;;;10339746;28;20088;-70
2023/10/16 06:34:39;;;;;;;10.55;2.95;;;;;;;;;;10340644;28;20085;-76
2023/10/16 06:39:41;;;;;;;;;;;;;;;;;;10338522;28;20077;-72
2023/10/16 06:44:50;;;;;;;8.52;2.80;;;;;;;;;;10342468;28;19941;-70
2023/10/16 06:49:56;;;;;;;4.78;2.80;;;;;;;;;;10341420;28;20061;-70
2023/10/16 06:54:59;;;;;;;3.97;2.60;;;;;;;;;;10347008;28;20033;-70
2023/10/16 07:00:08;;;;;;;5.72;2.80;;;;;;;;;;10349677;28;20041;-71
2023/10/16 07:05:13;;;;;;;4.70;2.63;;;;;;;;;;10343437;28;20074;-70
2023/10/16 07:10:16;;;;;;;5.70;2.63;;;;;;;;;;10351944;28;20352;-70
2023/10/16 07:15:24;;;;;;;4.93;2.50;;;;;;;;;;10350873;28;20046;-69
2023/10/16 07:20:30;;;;;;;5.00;2.58;;;;;;;;;;10350436;28;20503;-69
2023/10/16 07:25:47;;;;;;;5.80;2.53;;;;;;;;;;10345477;28;20049;-70
2023/10/16 07:30:51;;;;;;;4.20;2.75;;;;;;;;;;10344992;28;20506;-69
2023/10/16 07:35:57;;;;;;;4.97;2.40;;;;;;;;;;10345401;28;20054;-71
2023/10/16 07:41:00;;;;;;;4.97;2.28;;;;;;;;;;10354203;28;20150;-69
2023/10/16 07:46:16;;;;;;;;;;;;;;;;;;10339659;28;20552;-71
2023/10/16 07:51:20;;;;;;;6.05;2.35;;;;;;;;;;10334980;28;20450;-70
2023/10/16 07:56:28;;;;;;;4.85;2.50;;;;;;;;;;10339265;28;20517;-71
2023/10/16 08:01:36;;;;;;;5.75;2.53;;;;;;;;;;10336891;28;20435;-71
2023/10/16 08:06:41;;;;;;;4.70;3.08;;;;;;;;;;10334285;28;20731;-69
2023/10/16 08:11:44;;;;;;;3.55;2.17;;;;;;;;;;10339185;28;20686;-70
2023/10/16 08:16:47;;;;;;;5.53;2.75;;;;;;;;;;10335418;28;20128;-71
2023/10/16 08:21:49;;;;;;;;;;;;;;;;;;10333178;28;20050;-71
2023/10/16 08:27:01;;;;;;;3.53;2.40;;;;;;;;;;10334451;28;19929;-73
2023/10/16 08:37:22;;;;;;;3.33;2.40;;;;;;;;;;10331575;28;20121;-69
2023/10/16 08:42:26;;;;;;;4.30;2.80;;;;;;;;;;10337169;28;20038;-70
2023/10/16 08:47:29;;;;;;;4.38;2.50;;;;;;;;;;10333808;28;20072;-71
2023/10/16 08:52:35;;;;;;;4.00;2.40;;;;;;;;;;10333233;28;20042;-72
2023/10/16 08:57:39;;;;;;;4.63;2.30;;;;;;;;;;10336541;28;20053;-71
2023/10/16 09:02:42;;;;;;;4.72;2.30;;;;;;;;;;10340507;28;20482;-71
2023/10/16 09:07:44;;;;;;;2.92;2.22;;;;;;;;;;10329878;28;20079;-72
2023/10/16 09:12:54;;;;;;;3.53;2.40;;;;;;;;;;10337359;28;20240;-71
2023/10/16 09:17:57;;;;;;;2.92;2.25;;;;;;;;;;10355534;28;20127;-71
2023/10/16 09:23:01;;;;;;;2.60;2.35;;;;;;;;;;10340509;28;20502;-71
2023/10/16 09:28:06;;;;;;;3.25;2.30;;;;;;;;;;10337878;28;20136;-71
2023/10/16 09:33:10;;;;;;;4.60;2.53;;;;;;;;;;10335292;28;20081;-71
2023/10/16 09:38:17;;;;;;;2.40;2.17;;;;;;;;;;10333105;28;20068;-72
2023/10/16 09:43:25;;;;;;;2.95;2.10;;;;;;;;;;10329660;28;20167;-71
2023/10/16 09:48:28;;;;;;;4.30;2.35;;;;;;;;;;10329386;28;20050;-74
2023/10/16 09:53:32;;;;;;;5.13;2.70;;;;;;;;;;10330753;28;20053;-72
2023/10/16 09:58:36;;;;;;;3.00;2.10;;;;;;;;;;10334410;28;20057;-71
2023/10/16 10:03:42;;;;;;;3.88;2.33;;;;;;;;;;10346486;28;20049;-72
2023/10/16 10:14:26;;;;;;;5.13;2.10;;;;;;;;;;10341880;28;20625;-72
2023/10/16 10:19:36;;;;;;;4.53;2.45;;;;;;;;;;10338490;28;20053;-72
2023/10/16 10:24:45;;;;;;;4.20;2.40;;;;;;;;;;10337923;28;20427;-73
2023/10/16 10:29:49;;;;;;;2.90;2.30;;;;;;;;;;10348162;28;20111;-71
2023/10/16 10:35:12;;;;;;;5.00;2.83;;;;;;;;;;10342603;28;20149;-72
2023/10/16 10:40:21;;;;;;;4.90;3.10;;;;;;;;;;10338209;28;20074;-72
2023/10/16 10:45:33;;;;;;;4.93;3.00;;;;;;;;;;10338279;28;20133;-71
2023/10/16 10:50:39;;;;;;;4.15;2.80;;;;;;;;;;10341272;28;20197;-71
2023/10/16 10:56:07;;;;;;;3.65;3.00;;;;;;;;;;10339179;28;20073;-72
2023/10/16 11:01:18;;;;;;;3.95;2.88;;;;;;;;;;10330294;28;20069;-71
2023/10/16 11:06:31;;;;;;;4.90;3.72;;;;;;;;;;10336780;28;20092;-71
2023/10/16 11:11:39;;;;;;;5.55;3.85;;;;;;;;;;10341440;28;20423;-72
2023/10/16 11:16:48;;;;;;;5.78;2.92;;;;;;;;;;10336334;28;20669;-72
2023/10/16 11:21:52;;;;;;;4.07;2.80;;;;;;;;;;10327485;28;20057;-72
2023/10/16 11:26:57;;;;;;;4.05;2.83;;;;;;;;;;10340647;28;20048;-74
2023/10/16 11:32:06;;;;;;;2.83;2.25;;;;;;;;;;10349319;28;20497;-70
2023/10/16 11:37:12;;;;;;;5.13;2.25;;;;;;;;;;10349512;28;20034;-71
2023/10/16 11:42:15;;;;;;;4.45;2.47;;;;;;;;;;10349074;28;20153;-73
2023/10/16 11:47:19;;;;;;;4.30;2.50;;;;;;;;;;10344760;28;20140;-72
2023/10/16 11:52:27;;;;;;;4.93;2.65;;;;;;;;;;10347177;28;20085;-71
2023/10/16 11:57:31;;;;;;;4.10;2.47;;;;;;;;;;10343693;28;20064;-71
2023/10/16 12:02:38;;;;;;;4.38;2.72;;;;;;;;;;10335312;28;20050;-71
2023/10/16 12:07:43;;;;;;;3.45;2.45;;;;;;;;;;10346269;28;20053;-71
2023/10/16 12:12:46;;;;;;;5.65;2.58;;;;;;;;;;10347117;28;20160;-71
2023/10/16 12:17:53;;;;;;;8.10;3.15;;;;;;;;;;10347984;28;20131;-72
2023/10/16 12:22:56;;;;;;;3.20;2.47;;;;;;;;;;10340865;28;20415;-71
2023/10/16 12:27:59;;;;;;;5.40;2.90;;;;;;;;;;10345310;28;20148;-70
2023/10/16 12:33:05;;;;;;;4.03;2.45;;;;;;;;;;10339609;28;20038;-72
2023/10/16 12:38:07;;;;;;;4.68;2.80;;;;;;;;;;10342611;28;20135;-72
2023/10/16 12:43:10;;;;;;;5.40;2.72;;;;;;;;;;10342726;28;20050;-70
2023/10/16 12:48:15;;;;;;;3.13;2.45;;;;;;;;;;10343373;28;20962;-73
2023/10/16 12:53:20;;;;;;;3.70;2.30;;;;;;;;;;10336525;28;20073;-74
2023/10/16 12:58:23;;;;;;;3.72;2.60;;;;;;;;;;10339703;28;20054;-72
2023/10/16 13:03:27;;;;;;;5.22;2.45;;;;;;;;;;10344925;28;20042;-72
2023/10/16 13:08:30;;;;;;;3.33;2.40;;;;;;;;;;10334984;28;20069;-70
2023/10/16 13:13:33;;;;;;;4.57;2.40;;;;;;;;;;10345767;28;20057;-71
2023/10/16 13:18:38;;;;;;;7.47;3.83;;;;;;;;;;10337880;28;20050;-72
2023/10/16 13:23:40;;;;;;;4.35;2.47;;;;;;;;;;10336538;28;20164;-72
2023/10/16 13:28:48;;;;;;;3.15;2.20;;;;;;;;;;10334195;28;20057;-70
2023/10/16 13:33:52;;;;;;;2.92;2.15;;;;;;;;;;10335421;28;20090;-72
2023/10/16 13:38:55;;;;;;;2.67;1.85;;;;;;;;;;10337529;28;20057;-72
2023/10/16 13:43:58;;;;;;;3.25;1.95;;;;;;;;;;10332732;28;20053;-72
2023/10/16 13:49:05;;;;;;;4.82;2.30;;;;;;;;;;10331960;28;20049;-72
2023/10/16 13:54:11;;;;;;;2.63;1.85;;;;;;;;;;10335655;28;20038;-71
2023/10/16 13:59:14;;;;;;;3.03;1.70;;;;;;;;;;10338445;28;20081;-72
2023/10/16 14:04:21;;;;;;;2.17;1.70;;;;;;;;;;10334879;28;20038;-71
2023/10/16 14:09:28;;;;;;;2.70;1.70;;;;;;;;;;10332690;28;20151;-71
2023/10/16 14:14:33;;;;;;;6.90;2.08;;;;;;;;;;10340556;28;20104;-73
2023/10/16 14:19:37;;;;;;;2.75;1.58;;;;;;;;;;10338225;28;20056;-71
2023/10/16 14:24:40;;;;;;;3.20;1.73;;;;;;;;;;10332018;28;20037;-71
2023/10/16 14:29:46;;;;;;;3.95;1.60;;;;;;;;;;10334147;28;20085;-71
2023/10/16 14:34:49;;;;;;;3.55;1.50;;;;;;;;;;10336103;28;20050;-71
2023/10/16 14:39:56;;;;;;;5.20;2.25;;;;;;;;;;10340624;28;20128;-72
2023/10/16 14:45:00;;;;;;;4.75;2.13;;;;;;;;;;10338406;28;20092;-70
2023/10/16 14:50:03;;;;;;;;;;;;;;;;;;10330009;28;20189;-70
2023/10/16 14:55:08;;;;;;;3.40;2.20;;;;;;;;;;10335217;28;20019;-71
2023/10/16 15:00:13;;;;;;;5.22;2.50;;;;;;;;;;10337190;28;20073;-72
2023/10/16 15:05:16;;;;;;;4.95;3.20;;;;;;;;;;10349551;28;20125;-73
2023/10/16 15:10:21;;;;;;;6.68;3.50;;;;;;;;;;10340425;28;20046;-71
2023/10/16 15:15:45;;;;;;;4.18;2.75;;;;;;;;;;10347843;28;20051;-70
2023/10/16 15:20:48;;;;;;;6.35;3.65;;;;;;;;;;10342381;28;20053;-70
2023/10/16 15:25:55;;;;;;;7.38;3.60;;;;;;;;;;10340887;28;20053;-71
2023/10/16 15:30:59;;;;;;;4.78;3.53;;;;;;;;;;10362157;28;20481;-72
2023/10/16 15:36:02;;;;;;;7.78;3.92;;;;;;;;;;10343562;28;20173;-70
2023/10/16 15:41:09;;;;;;;4.97;3.65;;;;;;;;;;10345578;28;20049;-72
2023/10/16 15:46:24;;;;;;;5.95;3.67;;;;;;;;;;10338725;28;20054;-70
2023/10/16 15:51:30;;;;;;;6.50;4.05;;;;;;;;;;10342806;28;20050;-71
2023/10/16 15:56:35;;;;;;;7.10;4.13;;;;;;;;;;10342797;28;20042;-70
2023/10/16 16:01:38;;;;;;;7.38;4.13;;;;;;;;;;10339355;28;20053;-71
2023/10/16 16:06:44;;;;;;;7.68;4.13;;;;;;;;;;10340557;28;20157;-71
2023/10/16 16:11:48;;;;;;;8.85;4.88;;;;;;;;;;10336547;28;20065;-71
2023/10/16 16:16:52;;;;;;;9.98;5.05;;;;;;;;;;10347408;28;20041;-70
2023/10/16 16:21:55;;;;;;;8.32;4.07;;;;;;;;;;10345448;28;20100;-71
2023/10/16 16:26:59;;;;;;;7.57;3.97;;;;;;;;;;10341367;28;20453;-71
2023/10/16 16:32:03;;;;;;;8.95;4.72;;;;;;;;;;10340558;28;20049;-71
2023/10/16 16:37:06;;;;;;;6.45;3.78;;;;;;;;;;10338102;28;20050;-70
2023/10/16 16:42:13;;;;;;;9.15;4.05;;;;;;;;;;10342263;28;20061;-71
2023/10/16 16:47:17;;;;;;;6.80;3.33;;;;;;;;;;10343340;28;20125;-72
2023/10/16 16:52:21;;;;;;;7.25;3.25;;;;;;;;;;10337851;28;20588;-72
2023/10/16 16:57:25;;;;;;;9.20;4.40;;;;;;;;;;10340668;28;20135;-71
2023/10/16 17:02:29;;;;;;;7.20;3.80;;;;;;;;;;10344823;28;20540;-71
2023/10/16 17:07:32;;;;;;;10.38;4.57;;;;;;;;;;10341916;28;20433;-70
2023/10/16 17:12:36;;;;;;;6.38;3.50;;;;;;;;;;10346968;28;20683;-71
2023/10/16 17:17:38;;;;;;;7.55;3.47;;;;;;;;;;10344163;28;20050;-70
2023/10/16 17:22:42;;;;;;;9.98;3.95;;;;;;;;;;10338832;28;20058;-71
2023/10/16 17:28:08;;;;;;;10.43;4.80;;;;;;;;;;10359586;28;20048;-71
2023/10/16 17:33:12;;;;;;;10.07;4.88;;;;;;;;;;10356291;28;20725;-70
2023/10/16 17:38:16;;;;;;;9.60;4.50;;;;;;;;;;10357250;28;20267;-70
2023/10/16 17:43:20;;;;;;;9.10;4.47;;;;;;;;;;10358019;28;20387;-71
2023/10/16 17:48:22;;;;;;;10.10;4.57;;;;;;;;;;10356146;28;20403;-71
2023/10/16 17:53:25;;;;;;;11.32;4.88;;;;;;;;;;10357477;28;20568;-71
2023/10/16 17:58:31;;;;;;;9.35;4.90;;;;;;;;;;10361170;28;20038;-71
2023/10/16 18:03:33;;;;;;;9.10;4.78;;;;;;;;;;10357240;28;20061;-70
2023/10/16 18:08:36;;;;;;;10.32;5.05;;;;;;;;;;10358360;28;20046;-72
2023/10/16 18:13:41;;;;;;;10.60;5.03;;;;;;;;;;10357586;28;20466;-71
2023/10/16 18:18:51;;;;;;;12.10;5.15;;;;;;;;;;10353553;28;20049;-71
2023/10/16 18:23:57;;;;;;;9.65;4.65;;;;;;;;;;10354064;28;20048;-70
2023/10/16 18:29:02;;;;;;;10.15;5.15;;;;;;;;;;10358276;28;20480;-71
2023/10/16 18:34:12;;;;;;;13.27;5.40;;;;;;;;;;10363719;28;20102;-71
2023/10/16 18:39:17;;;;;;;13.32;5.95;;;;;;;;;;10379473;28;20189;-71
2023/10/16 18:44:22;;;;;;;10.57;5.60;;;;;;;;;;10363727;28;20080;-70
2023/10/16 18:49:24;;;;;;;13.23;6.03;;;;;;;;;;10363464;28;20050;-71
2023/10/16 18:54:27;;;;;;;12.68;6.05;;;;;;;;;;10367413;28;20069;-72
2023/10/16 18:59:33;;;;;;;12.25;6.50;;;;;;;;;;10367328;28;20046;-69
2023/10/16 19:04:36;;;;;;;12.35;5.57;;;;;;;;;;10361673;28;20054;-70
2023/10/16 19:09:39;;;;;;;10.80;5.50;;;;;;;;;;10364488;28;20101;-70
2023/10/16 19:14:43;;;;;;;13.27;6.45;;;;;;;;;;10358930;28;20046;-71
2023/10/16 19:19:45;;;;;;;11.98;5.38;;;;;;;;;;10359010;28;20065;-71
2023/10/16 19:24:49;;;;;;;14.55;7.03;;;;;;;;;;10367840;28;20474;-71
2023/10/16 19:29:57;;;;;;;16.85;7.28;;;;;;;;;;10356091;28;20042;-70
2023/10/16 19:34:59;;;;;;;15.60;6.55;;;;;;;;;;10343090;28;20057;-70
2023/10/16 19:40:11;;;;;;;12.00;6.40;;;;;;;;;;10348769;28;20053;-70
2023/10/16 19:45:17;;;;;;;12.38;6.32;;;;;;;;;;10348721;28;20034;-69
2023/10/16 19:50:20;;;;;;;11.55;6.15;;;;;;;;;;10343728;28;20042;-70
2023/10/16 19:55:24;;;;;;;12.77;6.75;;;;;;;;;;10346154;28;20042;-69
2023/10/16 20:00:28;;;;;;;12.13;5.63;;;;;;;;;;10343926;28;20501;-70
2023/10/16 20:05:31;;;;;;;12.52;5.85;;;;;;;;;;10351098;28;20088;-70
2023/10/16 20:10:36;;;;;;;12.57;6.07;;;;;;;;;;10351316;28;20131;-70
2023/10/16 20:15:40;;;;;;;10.68;5.38;;;;;;;;;;10345249;28;20030;-69
2023/10/16 20:20:47;;;;;;;13.85;5.50;;;;;;;;;;10346856;28;20058;-71
2023/10/16 20:25:50;;;;;;;16.00;6.10;;;;;;;;;;10338547;28;20042;-69
2023/10/16 20:30:56;;;;;;;11.38;5.65;;;;;;;;;;10346783;28;20483;-70
2023/10/16 20:35:58;;;;;;;10.55;5.72;;;;;;;;;;10339381;28;20055;-70
2023/10/16 20:41:01;;;;;;;10.82;5.55;;;;;;;;;;10346537;28;20514;-71
2023/10/16 20:46:06;;;;;;;11.05;5.38;;;;;;;;;;10345770;28;20136;-71
2023/10/16 20:51:09;;;;;;;12.57;5.45;;;;;;;;;;10340167;28;20076;-70
2023/10/16 20:56:12;;;;;;;12.60;5.97;;;;;;;;;;10343213;28;20497;-69
2023/10/16 21:01:15;;;;;;;10.18;5.15;;;;;;;;;;10338110;28;20050;-69
2023/10/16 21:06:18;;;;;;;12.65;5.95;;;;;;;;;;10354499;28;20046;-70
2023/10/16 21:11:21;;;;;;;12.18;5.68;;;;;;;;;;10343829;28;20522;-71
2023/10/16 21:16:25;;;;;;;9.73;4.85;;;;;;;;;;10343317;28;20062;-70
2023/10/16 21:21:27;;;;;;;11.07;5.40;;;;;;;;;;10343244;28;20053;-70
2023/10/16 21:26:30;;;;;;;12.05;5.85;;;;;;;;;;10347510;28;20038;-68
2023/10/16 21:31:35;;;;;;;12.18;5.70;;;;;;;;;;10343109;28;20046;-68
2023/10/16 21:36:37;;;;;;;;;;;;;;;;;;10340726;28;20102;-70
2023/10/16 21:41:40;;;;;;;13.10;5.60;;;;;;;;;;10344934;28;19925;-73
2023/10/16 21:46:44;;;;;;;11.38;5.70;;;;;;;;;;10348070;28;20134;-69
2023/10/16 21:51:47;;;;;;;11.60;5.18;;;;;;;;;;10340586;28;20560;-70
2023/10/16 21:56:49;;;;;;;11.48;5.57;;;;;;;;;;10346976;28;20525;-71
2023/10/16 22:01:53;;;;;;;14.07;6.35;;;;;;;;;;10341019;28;20108;-70
2023/10/16 22:06:59;;;;;;;12.65;5.97;;;;;;;;;;10342113;28;20156;-70
2023/10/16 22:12:04;;;;;;;14.13;5.97;;;;;;;;;;10348125;28;20076;-70
2023/10/16 22:17:08;;;;;;;14.10;5.97;;;;;;;;;;10343821;28;20049;-70
2023/10/16 22:22:10;;;;;;;11.63;5.55;;;;;;;;;;10340173;28;20048;-70
2023/10/16 22:27:15;;;;;;;12.52;5.70;;;;;;;;;;10344456;28;20085;-71
2023/10/16 22:32:20;;;;;;;10.73;5.53;;;;;;;;;;10341741;28;20050;-70
2023/10/16 22:37:22;;;;;;;12.73;6.13;;;;;;;;;;10338282;28;20069;-70
2023/10/16 22:42:26;;;;;;;11.95;6.03;;;;;;;;;;10334201;28;20037;-70
2023/10/16 22:47:31;;;;;;;11.60;5.45;;;;;;;;;;10332365;28;20498;-71
2023/10/16 22:52:33;;;;;;;13.23;5.55;;;;;;;;;;10340953;28;20078;-72
2023/10/16 22:57:36;;;;;;;13.98;6.25;;;;;;;;;;10339923;28;20038;-71
2023/10/16 23:02:41;;;;;;;10.65;5.13;;;;;;;;;;10343393;28;20535;-73
2023/10/16 23:07:44;;;;;;;11.43;5.75;;;;;;;;;;10342919;28;20053;-71
2023/10/16 23:12:46;;;;;;;12.40;6.03;;;;;;;;;;10344058;28;20064;-71
2023/10/16 23:17:50;;;;;;;13.60;6.20;;;;;;;;;;10335688;28;20145;-70
2023/10/16 23:22:53;;;;;;;;;;;;;;;;;;10346271;28;20129;-70
2023/10/16 23:27:58;;;;;;;14.07;6.47;;;;;;;;;;10348341;28;19922;-69
2023/10/16 23:33:08;;;;;;;11.77;6.10;;;;;;;;;;10349728;28;20045;-69
2023/10/16 23:38:12;;;;;;;13.02;6.43;;;;;;;;;;10350437;28;20477;-69
2023/10/16 23:43:15;;;;;;;12.77;6.20;;;;;;;;;;10352015;28;20065;-69
2023/10/16 23:48:20;;;;;;;12.00;6.17;;;;;;;;;;10355607;28;20112;-69
2023/10/16 23:53:39;;;;;;;13.48;6.13;;;;;;;;;;10365878;28;20042;-71
2023/10/16 23:58:43;;;;;;;13.57;6.22;;;;;;;;;;10367978;28;20274;-69
